Time;durP1;ratioP1;P1;durP2;ratioP2;P2;SDS_P1;SDS_P2;PMS_P1;PMS_P2;Temp;Humidity;BMP_temperature;BMP_pressure;BME280_temperature;BME280_humidity;BME280_pressure;Samples;Min_cycle;Max_cycle;Signal;HPM_P1;HPM_P2
2022/10/04 00:01:47;;;;;;;8.63;7.23;;;;;;;8.30;100.00;98860.06;5073827;28;20593;-71
2022/10/04 00:04:23;;;;;;;10.63;7.47;;;;;;;8.31;100.00;98859.03;5073770;28;20211;-71
2022/10/04 00:07:07;;;;;;;12.60;7.83;;;;;;;8.30;100.00;98851.28;5073824;28;20196;-71
2022/10/04 00:09:54;;;;;;;11.17;7.57;;;;;;;8.30;100.00;98852.13;5073631;28;20248;-71
2022/10/04 00:12:56;;;;;;;10.07;7.53;;;;;;;8.33;100.00;98849.06;5073759;28;20192;-70
2022/10/04 00:15:30;;;;;;;8.57;7.60;;;;;;;8.17;100.00;98857.22;5069966;28;20208;-71
2022/10/04 00:18:00;;;;;;;9.57;7.37;;;;;;;8.19;100.00;98855.19;5073669;28;20193;-71
2022/10/04 00:20:49;;;;;;;10.13;8.03;;;;;;;8.25;100.00;98856.31;5073182;28;20682;-71
2022/10/04 00:23:25;;;;;;;11.27;8.60;;;;;;;8.23;100.00;98853.03;5073253;28;20555;-71
2022/10/04 00:26:01;;;;;;;12.13;8.07;;;;;;;8.15;100.00;98845.16;5073188;28;20594;-71
2022/10/04 00:28:31;;;;;;;14.80;8.27;;;;;;;8.18;100.00;98847.41;5073521;28;20208;-71
2022/10/04 00:31:11;;;;;;;10.50;8.07;;;;;;;8.18;100.00;98848.25;5073470;28;20235;-71
2022/10/04 00:33:50;;;;;;;11.03;8.30;;;;;;;8.15;100.00;98853.91;5073519;28;20192;-70
2022/10/04 00:36:25;;;;;;;10.03;8.13;;;;;;;8.19;100.00;98846.44;5074035;28;20545;-70
2022/10/04 00:39:04;;;;;;;11.67;7.80;;;;;;;8.15;100.00;98845.16;5073459;28;20200;-71
2022/10/04 00:41:49;;;;;;;11.03;8.60;;;;;;;8.00;100.00;98842.50;5073301;28;20221;-71
2022/10/04 00:44:29;;;;;;;11.57;8.73;;;;;;;8.04;100.00;98843.78;5073397;28;20208;-71
2022/10/04 00:46:58;;;;;;;12.63;8.80;;;;;;;8.03;100.00;98838.69;5073094;28;20188;-71
2022/10/04 00:49:31;;;;;;;15.60;8.67;;;;;;;8.06;100.00;98839.13;5073664;28;20220;-71
2022/10/04 00:52:04;;;;;;;12.23;8.10;;;;;;;8.12;100.00;98838.41;5071863;28;20650;-71
2022/10/04 00:54:49;;;;;;;13.00;8.50;;;;;;;8.05;100.00;98829.53;5076177;28;20189;-71
2022/10/04 00:57:28;;;;;;;9.40;8.37;;;;;;;8.05;100.00;98828.75;5077011;28;20685;-71
2022/10/04 01:00:32;;;;;;;15.10;8.73;;;;;;;8.07;100.00;98829.34;5076019;28;20224;-71
2022/10/04 01:03:02;;;;;;;12.03;8.70;;;;;;;8.07;100.00;98818.78;5065725;28;20295;-71
2022/10/04 01:05:36;;;;;;;10.70;7.97;;;;;;;8.09;100.00;98824.69;5075954;28;20208;-70
2022/10/04 01:08:13;;;;;;;10.20;8.17;;;;;;;8.12;100.00;98826.97;5077057;28;20216;-71
2022/10/04 01:10:53;;;;;;;9.30;7.80;;;;;;;8.08;100.00;98821.22;5076998;28;20229;-71
2022/10/04 01:13:41;;;;;;;12.47;8.67;;;;;;;7.96;100.00;98822.69;5076995;28;20555;-71
2022/10/04 01:16:17;;;;;;;8.80;7.80;;;;;;;7.95;100.00;98830.81;5069618;28;20552;-71
2022/10/04 01:18:44;;;;;;;12.63;8.60;;;;;;;7.78;100.00;98832.84;5076648;28;20215;-71
2022/10/04 01:21:19;;;;;;;9.97;8.00;;;;;;;7.76;100.00;98823.44;5076739;28;20224;-70
2022/10/04 01:23:47;;;;;;;10.30;8.13;;;;;;;7.76;100.00;98821.63;5076750;28;20204;-71
2022/10/04 01:26:30;;;;;;;11.20;7.67;;;;;;;7.70;100.00;98821.53;5076701;28;20212;-71
2022/10/04 01:29:00;;;;;;;10.17;7.50;;;;;;;7.73;100.00;98821.13;5076610;28;20220;-71
2022/10/04 01:31:29;;;;;;;12.23;8.47;;;;;;;7.82;100.00;98815.59;5076305;28;20235;-70
2022/10/04 01:33:55;;;;;;;10.27;7.93;;;;;;;7.73;100.00;98821.13;5076627;28;20283;-71
2022/10/04 01:36:22;;;;;;;11.30;8.27;;;;;;;7.68;100.00;98807.63;5076559;28;20204;-71
2022/10/04 01:38:49;;;;;;;9.30;7.90;;;;;;;7.67;100.00;98806.84;5076533;28;20204;-71
2022/10/04 01:41:21;;;;;;;10.97;8.17;;;;;;;7.58;100.00;98804.44;5076379;28;20311;-71
2022/10/04 01:43:53;;;;;;;13.17;8.33;;;;;;;7.65;100.00;98800.88;5075282;28;20196;-71
2022/10/04 01:46:25;;;;;;;11.47;8.27;;;;;;;7.63;100.00;98794.13;5075249;28;20193;-71
2022/10/04 01:48:55;;;;;;;10.80;7.90;;;;;;;7.70;100.00;98789.78;5076319;28;20220;-71
2022/10/04 01:51:26;;;;;;;13.47;8.67;;;;;;;7.76;100.00;98781.09;5076254;28;20250;-71
2022/10/04 01:54:05;;;;;;;12.77;8.60;;;;;;;7.84;100.00;98773.88;5076343;28;20536;-71
2022/10/04 01:56:43;;;;;;;11.93;8.83;;;;;;;7.85;100.00;98772.03;5075946;28;20558;-71
2022/10/04 01:59:17;;;;;;;12.60;8.30;;;;;;;7.80;100.00;98769.97;5075919;28;20185;-71
2022/10/04 02:01:49;;;;;;;13.17;8.63;;;;;;;7.75;100.00;98782.09;5075888;28;20208;-71
2022/10/04 02:04:23;;;;;;;11.80;8.73;;;;;;;7.72;100.00;98770.06;5075258;28;20189;-71
2022/10/04 02:06:52;;;;;;;11.67;8.70;;;;;;;7.70;100.00;98772.03;5074886;28;20193;-71
2022/10/04 02:09:23;;;;;;;11.27;8.70;;;;;;;7.57;100.00;98779.84;5075863;28;20315;-71
2022/10/04 02:11:52;;;;;;;12.90;8.40;;;;;;;7.51;100.00;98774.44;5074545;28;20191;-71
2022/10/04 02:14:24;;;;;;;9.40;8.20;;;;;;;7.62;100.00;98777.44;5075928;28;20209;-71
2022/10/04 02:16:52;;;;;;;9.10;7.57;;;;;;;7.66;100.00;98785.84;5075918;28;20756;-71
2022/10/04 02:19:24;;;;;;;11.67;8.53;;;;;;;7.58;100.00;98780.63;5075445;28;20208;-71
2022/10/04 02:21:51;;;;;;;11.37;7.87;;;;;;;7.53;100.00;98777.72;5075970;28;20209;-71
2022/10/04 02:24:19;;;;;;;13.13;8.10;;;;;;;7.47;100.00;98783.75;5075701;28;20204;-71
2022/10/04 02:26:52;;;;;;;9.37;7.93;;;;;;;7.48;100.00;98780.09;5075697;28;20204;-71
2022/10/04 02:29:20;;;;;;;13.13;7.73;;;;;;;7.48;100.00;98772.16;5075508;28;20213;-71
2022/10/04 02:34:35;;;;;;;9.00;7.60;;;;;;;7.43;100.00;98763.94;5075624;28;20539;-71
2022/10/04 02:37:04;;;;;;;11.73;8.07;;;;;;;7.45;100.00;98759.28;5075513;28;20200;-71
2022/10/04 02:39:56;;;;;;;8.87;7.97;;;;;;;7.49;100.00;98765.84;5075348;28;20562;-71
2022/10/04 02:42:38;;;;;;;12.40;8.00;;;;;;;7.47;100.00;98762.56;5074921;28;20644;-71
2022/10/04 02:45:24;;;;;;;8.77;7.33;;;;;;;7.43;100.00;98770.03;5075187;28;20196;-71
2022/10/04 02:48:00;;;;;;;8.57;7.20;;;;;;;7.42;100.00;98772.88;5075226;28;20184;-71
2022/10/04 02:50:41;;;;;;;9.97;7.27;;;;;;;7.41;100.00;98765.94;5073881;28;20224;-70
2022/10/04 02:53:16;;;;;;;8.87;7.60;;;;;;;7.37;100.00;98756.75;5074026;28;20189;-70
2022/10/04 02:55:43;;;;;;;8.50;7.40;;;;;;;7.42;100.00;98762.31;5075096;28;20188;-71
2022/10/04 02:58:15;;;;;;;10.20;7.40;;;;;;;7.33;100.00;98758.91;5074993;28;20599;-71
2022/10/04 03:00:49;;;;;;;9.07;7.13;;;;;;;7.32;100.00;98759.91;5074900;28;20588;-71
2022/10/04 03:03:22;;;;;;;12.57;8.07;;;;;;;7.28;100.00;98755.97;5074898;28;20199;-71
2022/10/04 03:06:11;;;;;;;8.50;7.60;;;;;;;7.23;100.00;98754.88;5074851;28;20196;-71
2022/10/04 03:08:43;;;;;;;11.23;7.57;;;;;;;7.29;100.00;98756.81;5074780;28;20568;-70
2022/10/04 03:11:12;;;;;;;9.17;7.93;;;;;;;7.27;100.00;98748.22;5074629;28;20225;-71
2022/10/04 03:13:41;;;;;;;9.53;7.70;;;;;;;7.28;100.00;98748.06;5074306;28;20689;-71
2022/10/04 03:16:08;;;;;;;8.83;6.87;;;;;;;7.31;100.00;98752.16;5074273;28;20205;-71
2022/10/04 03:18:36;;;;;;;9.23;7.33;;;;;;;7.32;100.00;98748.50;5074923;28;20219;-71
2022/10/04 03:21:07;;;;;;;12.30;7.23;;;;;;;7.38;100.00;98737.22;5074404;28;20231;-71
2022/10/04 03:23:35;;;;;;;8.67;7.20;;;;;;;7.33;100.00;98734.31;5074471;28;20193;-71
2022/10/04 03:26:14;;;;;;;9.63;7.33;;;;;;;7.29;100.00;98744.41;5074464;28;20546;-71
2022/10/04 03:28:40;;;;;;;11.33;7.07;;;;;;;7.25;100.00;98737.03;5074642;28;20184;-71
2022/10/04 03:31:07;;;;;;;10.37;7.10;;;;;;;7.24;100.00;98738.84;5074318;28;20562;-71
2022/10/04 03:33:34;;;;;;;10.10;7.53;;;;;;;7.31;100.00;98731.00;5074999;28;20204;-70
2022/10/04 03:36:01;;;;;;;9.97;6.67;;;;;;;7.24;100.00;98730.09;5074189;28;20215;-70
2022/10/04 03:38:28;;;;;;;10.87;7.50;;;;;;;7.24;100.00;98741.47;5073998;28;20204;-70
2022/10/04 03:40:58;;;;;;;11.97;7.90;;;;;;;7.15;100.00;98742.56;5072731;28;20227;-70
2022/10/04 03:43:29;;;;;;;13.97;7.43;;;;;;;7.15;100.00;98737.28;5073946;28;20209;-70
2022/10/04 03:45:57;;;;;;;7.77;6.97;;;;;;;7.13;100.00;98743.75;5072743;28;20189;-70
2022/10/04 03:48:39;;;;;;;8.73;6.43;;;;;;;7.07;100.00;98740.03;5072656;28;20208;-70
2022/10/04 03:51:11;;;;;;;9.53;6.80;;;;;;;7.09;100.00;98734.53;5073779;28;20235;-70
2022/10/04 03:53:42;;;;;;;9.20;6.60;;;;;;;7.11;100.00;98732.53;5072747;28;20189;-71
2022/10/04 03:56:15;;;;;;;8.00;6.67;;;;;;;7.10;100.00;98738.84;5074112;28;20653;-71
2022/10/04 03:58:42;;;;;;;9.00;7.17;;;;;;;7.07;100.00;98733.91;5073151;28;20205;-71
2022/10/04 04:01:30;;;;;;;10.50;6.50;;;;;;;7.08;100.00;98735.53;5072526;28;20602;-71
2022/10/04 04:04:16;;;;;;;9.23;7.37;;;;;;;7.08;100.00;98740.81;5073640;28;20284;-71
2022/10/04 04:07:03;;;;;;;9.37;7.30;;;;;;;7.11;100.00;98732.53;5073825;28;20203;-71
2022/10/04 04:09:43;;;;;;;8.23;7.03;;;;;;;7.07;100.00;98739.19;5073570;28;20220;-71
2022/10/04 04:12:16;;;;;;;10.80;7.00;;;;;;;7.14;100.00;98733.00;5073609;28;20192;-71
2022/10/04 04:14:45;;;;;;;8.23;7.43;;;;;;;7.16;100.00;98728.38;5072383;28;20212;-71
2022/10/04 04:17:42;;;;;;;10.07;7.53;;;;;;;7.14;100.00;98733.00;5073579;28;20200;-71
2022/10/04 04:20:24;;;;;;;12.40;8.43;;;;;;;7.11;100.00;98730.69;5072218;28;20236;-71
2022/10/04 04:23:23;;;;;;;9.87;7.57;;;;;;;7.14;100.00;98729.53;5072188;28;20200;-71
2022/10/04 04:25:54;;;;;;;8.40;7.37;;;;;;;7.20;100.00;98726.16;5069207;28;20210;-70
2022/10/04 04:28:29;;;;;;;8.27;7.07;;;;;;;7.13;100.00;98715.50;5072936;28;20212;-71
2022/10/04 04:31:03;;;;;;;9.70;7.00;;;;;;;7.12;100.00;98720.97;5073166;28;20235;-71
2022/10/04 04:33:35;;;;;;;10.17;7.30;;;;;;;7.09;100.00;98716.84;5072913;28;20598;-71
2022/10/04 04:36:06;;;;;;;8.73;6.60;;;;;;;7.00;100.00;98714.47;5072025;28;20197;-71
2022/10/04 04:38:34;;;;;;;8.37;7.33;;;;;;;6.94;100.00;98718.66;5073277;28;20215;-71
2022/10/04 04:41:10;;;;;;;11.27;7.20;;;;;;;6.98;100.00;98719.97;5073171;28;20225;-71
2022/10/04 04:43:36;;;;;;;9.13;6.50;;;;;;;6.96;100.00;98726.38;5072582;28;20208;-71
2022/10/04 04:46:08;;;;;;;10.03;6.90;;;;;;;6.95;100.00;98714.19;5072685;28;20671;-70
2022/10/04 04:48:36;;;;;;;7.90;6.50;;;;;;;6.90;100.00;98711.25;5073001;28;20212;-70
2022/10/04 04:51:02;;;;;;;6.80;6.07;;;;;;;6.92;100.00;98717.22;5072676;28;20235;-70
2022/10/04 04:53:30;;;;;;;8.43;6.90;;;;;;;6.85;100.00;98730.31;5072988;28;20208;-70
2022/10/04 04:56:01;;;;;;;7.83;7.03;;;;;;;6.89;100.00;98733.41;5073141;28;20205;-70
2022/10/04 04:58:34;;;;;;;11.13;7.43;;;;;;;6.85;100.00;98745.34;5072929;28;20603;-70
2022/10/04 05:01:05;;;;;;;12.80;7.03;;;;;;;6.91;100.00;98749.91;5072680;28;20352;-70
2022/10/04 05:03:32;;;;;;;9.80;7.27;;;;;;;6.89;100.00;98747.47;5072915;28;20519;-71
2022/10/04 05:06:01;;;;;;;9.57;7.63;;;;;;;6.90;100.00;98753.56;5072453;28;20274;-71
2022/10/04 05:08:30;;;;;;;9.10;7.70;;;;;;;6.92;100.00;98756.84;5073202;28;20201;-71
2022/10/04 05:11:06;;;;;;;9.10;7.17;;;;;;;6.87;100.00;98760.00;5072379;28;20232;-71
2022/10/04 05:13:44;;;;;;;9.10;7.20;;;;;;;6.84;100.00;98763.00;5072622;28;20287;-70
2022/10/04 05:16:24;;;;;;;9.10;6.87;;;;;;;6.83;100.00;98763.22;5072338;28;20196;-70
2022/10/04 05:19:00;;;;;;;9.17;7.20;;;;;;;6.84;100.00;98759.56;5072153;28;20227;-71
2022/10/04 05:21:29;;;;;;;11.13;7.30;;;;;;;6.81;100.00;98768.66;5072422;28;20314;-71
2022/10/04 05:23:58;;;;;;;10.37;7.37;;;;;;;6.86;100.00;98755.75;5072148;28;20204;-70
2022/10/04 05:26:28;;;;;;;7.93;6.90;;;;;;;6.82;100.00;98766.81;5072402;28;20205;-70
2022/10/04 05:28:59;;;;;;;10.20;7.30;;;;;;;6.80;100.00;98766.19;5073459;28;20193;-71
2022/10/04 05:31:37;;;;;;;8.47;7.13;;;;;;;6.77;100.00;98764.72;5072120;28;20228;-71
2022/10/04 05:34:15;;;;;;;8.10;7.30;;;;;;;6.92;100.00;98764.78;5072273;28;20211;-71
2022/10/04 05:37:07;;;;;;;8.53;7.17;;;;;;;7.00;100.00;98770.81;5072095;28;20193;-71
2022/10/04 05:39:50;;;;;;;9.83;6.57;;;;;;;7.04;100.00;98761.53;5073169;28;20209;-71
2022/10/04 05:42:25;;;;;;;8.00;6.97;;;;;;;7.03;100.00;98766.97;5060264;28;20191;-71
2022/10/04 05:44:56;;;;;;;8.33;6.90;;;;;;;7.06;100.00;98759.50;5075955;28;20184;-71
2022/10/04 05:47:26;;;;;;;8.47;6.77;;;;;;;7.07;100.00;98758.53;5075697;28;20219;-71
2022/10/04 05:49:57;;;;;;;11.40;7.20;;;;;;;7.09;100.00;98751.22;5074921;28;20228;-71
2022/10/04 05:52:34;;;;;;;7.10;6.40;;;;;;;7.05;100.00;98751.75;5075480;28;20585;-71
2022/10/04 05:55:14;;;;;;;8.53;6.67;;;;;;;7.14;100.00;98750.66;5075440;28;20275;-71
2022/10/04 05:57:56;;;;;;;9.27;6.87;;;;;;;7.05;100.00;98757.03;5075199;28;20208;-71
2022/10/04 06:00:35;;;;;;;7.30;6.60;;;;;;;7.06;100.00;98756.06;5075462;28;20754;-71
2022/10/04 06:03:09;;;;;;;7.43;6.57;;;;;;;7.14;100.00;98750.66;5075637;28;20192;-71
2022/10/04 06:05:54;;;;;;;8.47;6.80;;;;;;;7.20;100.00;98756.06;5075741;28;20189;-71
2022/10/04 06:08:42;;;;;;;7.90;6.70;;;;;;;7.09;100.00;98758.31;5075037;28;20204;-71
2022/10/04 06:11:19;;;;;;;8.37;6.87;;;;;;;7.10;100.00;98755.50;5075020;28;20231;-71
2022/10/04 06:14:00;;;;;;;7.10;6.40;;;;;;;7.15;100.00;98752.34;5075282;28;20197;-71
2022/10/04 06:16:51;;;;;;;8.33;6.70;;;;;;;7.26;100.00;98747.44;5074976;28;20195;-71
2022/10/04 06:19:52;;;;;;;8.97;6.37;;;;;;;7.18;100.00;98750.16;5075024;28;20209;-71
2022/10/04 06:22:21;;;;;;;8.03;7.03;;;;;;;7.22;100.00;98747.94;5074781;28;20618;-71
2022/10/04 06:25:00;;;;;;;7.67;6.67;;;;;;;7.31;100.00;98753.00;5074869;28;20204;-71
2022/10/04 06:27:40;;;;;;;9.00;6.70;;;;;;;7.31;100.00;98752.16;5075178;28;20189;-71
2022/10/04 06:30:14;;;;;;;7.77;5.93;;;;;;;7.35;100.00;98748.16;5073670;28;20343;-71
2022/10/04 06:32:59;;;;;;;8.10;6.97;;;;;;;7.30;100.00;98755.81;5074669;28;20196;-71
2022/10/04 06:35:51;;;;;;;7.37;6.07;;;;;;;7.45;100.00;98753.97;5075041;28;20189;-71
2022/10/04 06:38:23;;;;;;;8.50;6.50;;;;;;;7.46;100.00;98758.28;5066071;28;20213;-71
2022/10/04 06:41:18;;;;;;;7.33;6.43;;;;;;;7.50;100.00;98763.03;5075030;28;20216;-71
2022/10/04 06:43:58;;;;;;;7.90;6.80;;;;;;;7.57;100.00;98763.97;5074673;28;20554;-71
2022/10/04 06:46:51;;;;;;;9.13;6.60;;;;;;;7.61;100.00;98754.63;5074303;28;20639;-71
2022/10/04 06:49:53;;;;;;;8.30;6.20;;;;;;;7.67;100.00;98748.63;5074599;28;20201;-71
2022/10/04 06:52:35;;;;;;;10.13;6.43;;;;;;;7.76;100.00;98755.44;5074495;28;20202;-71
2022/10/04 06:55:16;;;;;;;11.20;7.43;;;;;;;7.80;100.00;98753.25;5075105;28;20617;-71
2022/10/04 06:58:07;;;;;;;8.93;6.87;;;;;;;7.82;100.00;98757.34;5074309;28;20655;-71
2022/10/04 07:00:45;;;;;;;9.57;6.77;;;;;;;7.80;100.00;98761.19;5073450;28;20223;-71
2022/10/04 07:03:22;;;;;;;9.90;7.50;;;;;;;7.76;100.00;98763.38;5074541;28;20269;-71
2022/10/04 07:06:02;;;;;;;11.17;7.03;;;;;;;7.90;100.00;98764.38;5073543;28;20200;-71
2022/10/04 07:08:39;;;;;;;10.20;7.03;;;;;;;7.91;100.00;98760.72;5074331;28;20260;-71
2022/10/04 07:11:15;;;;;;;11.40;6.37;;;;;;;8.01;100.00;98758.63;5074249;28;20239;-71
2022/10/04 07:13:51;;;;;;;7.67;6.50;;;;;;;8.03;100.00;98756.59;5074169;28;20189;-71
2022/10/04 07:16:36;;;;;;;12.37;7.30;;;;;;;8.05;100.00;98759.88;5074216;28;20558;-71
2022/10/04 07:19:21;;;;;;;9.87;7.30;;;;;;;8.15;100.00;98757.75;5073799;28;20695;-71
2022/10/04 07:21:56;;;;;;;10.73;7.07;;;;;;;8.17;100.00;98768.97;5074255;28;20197;-71
2022/10/04 07:24:51;;;;;;;9.60;7.07;;;;;;;8.17;100.00;98771.63;5073862;28;20196;-71
2022/10/04 07:27:22;;;;;;;11.37;7.20;;;;;;;8.26;100.00;98775.84;5073283;28;20196;-71
2022/10/04 07:29:54;;;;;;;9.33;7.00;;;;;;;8.26;100.00;98776.66;5073841;28;20247;-71
2022/10/04 07:32:28;;;;;;;8.17;7.30;;;;;;;8.24;100.00;98783.16;5073901;28;20659;-71
2022/10/04 07:35:05;;;;;;;11.60;8.00;;;;;;;8.14;100.00;98793.19;5073855;28;20185;-71
2022/10/04 07:37:46;;;;;;;12.73;8.07;;;;;;;8.24;100.00;98788.44;5073771;28;20551;-71
2022/10/04 07:40:58;;;;;;;11.30;8.37;;;;;;;8.28;100.00;98797.69;5074196;28;20228;-71
2022/10/04 07:43:30;;;;;;;12.33;8.97;;;;;;;8.35;100.00;98802.03;5071538;28;20208;-71
2022/10/04 07:46:06;;;;;;;12.83;7.87;;;;;;;8.49;100.00;98813.59;5073640;28;20531;-71
2022/10/04 07:48:32;;;;;;;11.77;7.80;;;;;;;8.54;100.00;98817.31;5073833;28;20196;-71
2022/10/04 07:51:03;;;;;;;10.07;8.10;;;;;;;8.60;100.00;98821.06;5073594;28;20232;-71
2022/10/04 07:53:40;;;;;;;12.37;7.83;;;;;;;8.73;100.00;98818.56;5073655;28;20203;-71
2022/10/04 07:56:14;;;;;;;9.60;7.00;;;;;;;8.81;100.00;98810.44;5073369;28;20184;-71
2022/10/04 07:59:10;;;;;;;10.43;7.53;;;;;;;8.92;100.00;98808.13;5073579;28;20192;-71
2022/10/04 08:02:00;;;;;;;9.33;7.50;;;;;;;8.96;100.00;98808.59;5073381;28;20232;-71
2022/10/04 08:04:37;;;;;;;13.53;8.50;;;;;;;9.08;100.00;98799.91;5072534;28;20193;-71
2022/10/04 08:07:27;;;;;;;10.70;7.37;;;;;;;9.04;100.00;98795.16;5073217;28;20553;-71
2022/10/04 08:10:07;;;;;;;9.03;7.27;;;;;;;9.12;100.00;98797.69;5072239;28;20228;-71
2022/10/04 08:12:58;;;;;;;12.40;8.20;;;;;;;9.23;100.00;98802.50;5073485;28;20192;-71
2022/10/04 08:15:32;;;;;;;10.47;7.57;;;;;;;9.54;100.00;98800.25;5071953;28;20576;-71
2022/10/04 08:18:21;;;;;;;9.70;6.57;;;;;;;9.34;100.00;98805.44;5072668;28;20196;-71
2022/10/04 08:20:58;;;;;;;7.03;6.07;;;;;;;9.24;100.00;98798.81;5073687;28;20225;-71
2022/10/04 08:23:25;;;;;;;9.33;6.30;;;;;;;9.17;100.00;98792.63;5073262;28;20528;-71
2022/10/04 08:26:40;;;;;;;7.80;6.50;;;;;;;9.16;100.00;98772.41;5072982;28;20287;-71
2022/10/04 08:29:41;;;;;;;7.53;5.63;;;;;;;9.19;100.00;98770.19;5051858;28;20272;-71
2022/10/04 08:32:26;;;;;;;9.30;5.23;;;;;;;9.34;100.00;98767.44;5073780;28;20289;-71
2022/10/04 08:34:55;;;;;;;6.97;5.40;;;;;;;9.50;100.00;98777.78;5073054;28;20305;-71
2022/10/04 08:37:40;;;;;;;7.57;5.67;;;;;;;9.61;100.00;98774.56;5074104;28;20299;-71
2022/10/04 08:40:25;;;;;;;8.40;5.03;;;;;;;9.66;100.00;98767.66;5073613;28;20235;-71
2022/10/04 08:43:49;;;;;;;9.27;5.20;;;;;;;9.71;100.00;98775.03;5073226;28;20201;-71
2022/10/04 08:46:46;;;;;;;5.47;4.97;;;;;;;9.87;100.00;98774.72;5050717;28;20263;-71
2022/10/04 08:50:01;;;;;;;6.53;5.50;;;;;;;9.86;100.00;98778.41;5050851;28;20220;-71
2022/10/04 08:52:50;;;;;;;8.27;5.23;;;;;;;9.96;100.00;98777.00;5073182;28;20207;-71
2022/10/04 08:55:36;;;;;;;7.23;5.27;;;;;;;9.98;100.00;98782.94;5071446;28;20200;-71
2022/10/04 08:58:14;;;;;;;6.70;4.90;;;;;;;10.02;100.00;98792.16;5072932;28;20208;-71
2022/10/04 09:01:18;;;;;;;14.60;5.87;;;;;;;10.27;100.00;98803.13;5071488;28;20638;-71
2022/10/04 09:04:01;;;;;;;7.37;5.57;;;;;;;10.36;100.00;98793.97;5072782;28;20253;-71
2022/10/04 09:06:57;;;;;;;6.50;4.70;;;;;;;10.40;100.00;98790.69;5071852;28;20189;-71
2022/10/04 09:09:43;;;;;;;8.03;4.90;;;;;;;10.51;100.00;98802.59;5071440;28;20208;-71
2022/10/04 09:12:28;;;;;;;7.57;5.40;;;;;;;10.66;100.00;98793.44;5071571;28;20205;-71
2022/10/04 09:15:18;;;;;;;8.70;5.63;;;;;;;10.96;100.00;98797.34;5075875;28;20201;-71
2022/10/04 09:17:50;;;;;;;7.13;5.70;;;;;;;11.17;100.00;98801.66;5076869;28;20252;-71
2022/10/04 09:20:57;;;;;;;7.87;5.43;;;;;;;11.30;100.00;98788.34;5076343;28;20239;-71
2022/10/04 09:23:56;;;;;;;6.23;5.30;;;;;;;11.52;100.00;98789.78;5077069;28;20204;-71
2022/10/04 09:26:46;;;;;;;8.13;4.90;;;;;;;11.53;100.00;98783.41;5075980;28;20208;-71
2022/10/04 09:29:37;;;;;;;8.90;5.20;;;;;;;11.83;100.00;98778.47;5076111;28;20201;-71
2022/10/04 09:32:25;;;;;;;5.53;4.80;;;;;;;11.74;97.49;98777.06;5076432;28;20210;-71
2022/10/04 09:35:06;;;;;;;7.67;4.50;;;;;;;11.87;98.98;98767.19;5076496;28;20193;-72
2022/10/04 09:37:51;;;;;;;9.50;4.50;;;;;;;12.15;96.65;98765.03;5076373;28;20200;-71
2022/10/04 09:40:42;;;;;;;6.80;4.57;;;;;;;12.25;95.07;98770.72;5076396;28;20225;-71
2022/10/04 09:43:29;;;;;;;6.90;4.13;;;;;;;12.22;96.53;98763.19;5076414;28;20200;-72
2022/10/04 09:46:16;;;;;;;7.43;4.30;;;;;;;12.45;94.90;98760.81;5076348;28;20215;-71
2022/10/04 09:48:54;;;;;;;7.73;4.50;;;;;;;12.53;92.68;98760.53;5076183;28;20202;-71
2022/10/04 09:52:00;;;;;;;8.70;4.47;;;;;;;12.56;93.19;98764.63;5076101;28;20631;-71
2022/10/04 09:54:48;;;;;;;5.27;4.10;;;;;;;12.71;94.75;98762.50;5074548;28;20655;-71
2022/10/04 09:57:36;;;;;;;6.63;4.30;;;;;;;12.89;93.56;98771.38;5075919;28;20197;-71
2022/10/04 10:00:10;;;;;;;7.20;4.17;;;;;;;13.09;93.18;98765.94;5075572;28;20224;-72
2022/10/04 10:02:54;;;;;;;8.30;3.87;;;;;;;13.25;92.30;98760.88;5075747;28;20184;-71
2022/10/04 10:05:23;;;;;;;6.73;3.80;;;;;;;13.27;90.42;98755.31;5074433;28;20277;-71
2022/10/04 10:08:00;;;;;;;11.53;4.93;;;;;;;13.49;88.81;98752.03;5075483;28;20212;-72
2022/10/04 10:13:41;;;;;;;6.43;4.60;;;;;;;13.29;89.98;98764.72;5075922;28;20709;-71
2022/10/04 10:16:32;;;;;;;6.27;4.33;;;;;;;13.36;88.69;98756.66;5074683;28;20185;-71
2022/10/04 10:18:59;;;;;;;5.67;4.30;;;;;;;13.56;88.45;98768.00;5075380;28;20215;-71
2022/10/04 10:21:31;;;;;;;5.60;4.20;;;;;;;13.57;88.39;98761.63;5075442;28;20232;-71
2022/10/04 10:24:26;;;;;;;4.90;4.20;;;;;;;13.73;89.97;98764.53;5075619;28;20216;-71
2022/10/04 10:27:09;;;;;;;7.43;4.17;;;;;;;13.94;87.32;98765.94;5073299;28;20628;-71
2022/10/04 10:29:45;;;;;;;6.80;4.00;;;;;;;13.89;85.02;98761.25;5075376;28;20193;-71
2022/10/04 10:32:47;;;;;;;5.07;3.47;;;;;;;13.89;84.19;98768.47;5058142;28;20205;-71
2022/10/04 10:35:57;;;;;;;6.67;3.23;;;;;;;13.98;82.72;98754.56;5074825;28;20184;-72
2022/10/04 10:38:45;;;;;;;5.23;3.30;;;;;;;13.98;83.91;98754.56;5073755;28;20648;-72
2022/10/04 10:41:37;;;;;;;6.77;3.67;;;;;;;13.98;82.77;98743.88;5074845;28;20228;-71
2022/10/04 10:44:28;;;;;;;7.57;3.23;;;;;;;14.17;81.21;98750.84;5074581;28;20636;-72
2022/10/04 10:47:17;;;;;;;8.73;3.10;;;;;;;14.23;82.38;98758.00;5074813;28;20262;-71
2022/10/04 10:50:12;;;;;;;5.63;2.83;;;;;;;14.27;86.58;98751.16;5073467;28;20244;-71
2022/10/04 10:53:06;;;;;;;4.13;2.70;;;;;;;14.43;79.97;98745.19;5074424;28;20693;-71
2022/10/04 10:55:33;;;;;;;7.33;2.93;;;;;;;14.58;79.93;98752.81;5074519;28;20629;-71
2022/10/04 10:58:12;;;;;;;5.67;2.97;;;;;;;14.53;82.50;98752.66;5074555;28;20299;-71
2022/10/04 11:00:59;;;;;;;9.10;3.00;;;;;;;14.57;81.87;98743.94;5073513;28;20225;-72
2022/10/04 11:04:00;;;;;;;5.77;2.87;;;;;;;14.46;80.14;98741.22;5074376;28;20189;-71
2022/10/04 11:06:57;;;;;;;4.07;2.80;;;;;;;14.48;82.14;98745.31;5074628;28;20205;-71
2022/10/04 11:09:29;;;;;;;8.27;3.30;;;;;;;14.60;81.60;98751.53;5075051;28;20189;-71
2022/10/04 11:12:32;;;;;;;5.83;3.20;;;;;;;14.67;79.60;98744.25;5074073;28;20224;-71
2022/10/04 11:15:37;;;;;;;6.47;2.90;;;;;;;14.61;79.61;98739.78;5074456;28;20189;-71
2022/10/04 11:18:36;;;;;;;5.57;2.77;;;;;;;14.88;79.81;98741.00;5074317;28;20231;-72
2022/10/04 11:21:11;;;;;;;4.90;2.70;;;;;;;14.82;78.85;98730.41;5059113;28;20229;-72
2022/10/04 11:24:19;;;;;;;5.50;3.40;;;;;;;14.81;80.23;98736.81;5074147;28;20204;-71
2022/10/04 11:27:08;;;;;;;6.67;3.13;;;;;;;14.86;79.96;98727.06;5073067;28;20199;-72
2022/10/04 11:30:23;;;;;;;5.83;3.23;;;;;;;15.21;80.01;98722.56;5074075;28;20216;-71
2022/10/04 11:33:10;;;;;;;6.27;2.53;;;;;;;15.29;79.29;98718.72;5051307;28;20557;-71
2022/10/04 11:36:01;;;;;;;4.20;3.10;;;;;;;15.36;78.43;98717.59;5073941;28;20188;-72
2022/10/04 11:39:17;;;;;;;9.20;3.13;;;;;;;15.36;77.55;98717.59;5071868;28;20192;-71
2022/10/04 11:42:01;;;;;;;6.17;2.97;;;;;;;15.08;77.57;98711.25;5072617;28;20538;-72
2022/10/04 11:44:40;;;;;;;6.90;2.70;;;;;;;15.11;79.72;98702.75;5073937;28;20193;-71
2022/10/04 11:47:28;;;;;;;6.63;3.10;;;;;;;15.24;80.65;98706.00;5074421;28;20526;-72
2022/10/04 11:50:07;;;;;;;6.50;3.00;;;;;;;15.48;77.42;98696.16;5073781;28;20624;-71
2022/10/04 11:52:36;;;;;;;6.03;3.10;;;;;;;15.31;77.52;98689.81;5073544;28;20208;-71
2022/10/04 11:55:25;;;;;;;3.07;2.60;;;;;;;15.43;77.63;98688.00;5074136;28;20208;-71
2022/10/04 11:57:56;;;;;;;4.27;3.00;;;;;;;15.55;77.96;98689.59;5073769;28;20614;-71
2022/10/04 12:00:24;;;;;;;9.37;3.40;;;;;;;15.81;77.43;98682.91;5073586;28;20302;-72
2022/10/04 12:03:00;;;;;;;4.30;2.83;;;;;;;15.88;77.98;98680.94;5073631;28;20292;-71
2022/10/04 12:05:38;;;;;;;4.23;2.83;;;;;;;15.88;77.64;98680.94;5073369;28;20651;-72
2022/10/04 12:08:19;;;;;;;4.20;2.80;;;;;;;15.98;79.18;98678.44;5072456;28;20564;-71
2022/10/04 12:11:15;;;;;;;3.50;2.90;;;;;;;16.10;77.02;98671.97;5072244;28;20234;-72
2022/10/04 12:14:22;;;;;;;5.67;2.90;;;;;;;16.09;75.89;98675.72;5073384;28;20192;-72
2022/10/04 12:17:20;;;;;;;5.37;2.70;;;;;;;16.27;76.01;98672.03;5073889;28;20291;-71
2022/10/04 12:19:55;;;;;;;6.47;2.87;;;;;;;16.32;74.30;98664.06;5072139;28;20331;-71
2022/10/04 12:22:40;;;;;;;5.17;2.97;;;;;;;16.39;74.34;98668.25;5073067;28;20639;-72
2022/10/04 12:25:52;;;;;;;4.37;2.80;;;;;;;16.30;74.76;98666.19;5073221;28;20195;-71
2022/10/04 12:28:47;;;;;;;6.63;3.07;;;;;;;16.28;75.08;98677.16;5072892;28;20522;-72
2022/10/04 12:31:26;;;;;;;3.27;2.60;;;;;;;16.19;75.78;98669.75;5072031;28;20232;-72
2022/10/04 12:34:04;;;;;;;6.50;3.00;;;;;;;16.14;77.48;98667.78;5073386;28;20188;-72
2022/10/04 12:36:46;;;;;;;3.67;2.63;;;;;;;16.14;78.59;98661.56;5073405;28;20192;-71